N711RX KSAV-KPDK
Flight info
| Callsign | N711RX |
|---|---|
| Flight time | 1h 3m |
| Altitude | 30000 |
| Route | SMALZ MMMOE WRGNZ3 |
| Aircraft | SF50/L-BDGRSWY/LB2U2 |
Departure
| Time | 2026-04-28 19:55 |
|---|---|
| Airport | Savannah Hilton Head International Airport (KSAV) |
Arrival
| Time | 2026-04-28 20:59 |
|---|---|
| Airport | DeKalb Peachtree Airport (KPDK) |
| Time | Latitude | Longitude | Altitude | Speed | Heading |
|---|---|---|---|---|---|
| 2026-04-28 19:44 | 32.12327 | -81.20263 | 35 ft | 0 kts | 90° |
| 2026-04-28 19:51 | 32.12359 | -81.20261 | 35 ft | 5 kts | 355° |
| 2026-04-28 19:51 | 32.12404 | -81.20201 | 36 ft | 14 kts | 12° |
| 2026-04-28 19:51 | 32.12526 | -81.20216 | 35 ft | 22 kts | 336° |
| 2026-04-28 19:51 | 32.12664 | -81.20311 | 33 ft | 24 kts | 330° |
| 2026-04-28 19:52 | 32.12818 | -81.20332 | 35 ft | 20 kts | 358° |
| 2026-04-28 19:52 | 32.12942 | -81.20331 | 37 ft | 17 kts | 0° |
| 2026-04-28 19:52 | 32.13074 | -81.20330 | 39 ft | 22 kts | 1° |
| 2026-04-28 19:52 | 32.13250 | -81.20329 | 38 ft | 29 kts | 359° |
| 2026-04-28 19:53 | 32.13444 | -81.20330 | 42 ft | 25 kts | 356° |
| 2026-04-28 19:53 | 32.13548 | -81.20326 | 43 ft | 6 kts | 26° |
| 2026-04-28 19:53 | 32.13567 | -81.20307 | 43 ft | 3 kts | 63° |
| 2026-04-28 19:53 | 32.13571 | -81.20268 | 45 ft | 8 kts | 90° |
| 2026-04-28 19:54 | 32.13572 | -81.20188 | 47 ft | 8 kts | 89° |
| 2026-04-28 19:54 | 32.13572 | -81.20143 | 47 ft | 3 kts | 89° |
| 2026-04-28 19:54 | 32.13573 | -81.20108 | 47 ft | 12 kts | 89° |
| 2026-04-28 19:54 | 32.13562 | -81.20016 | 47 ft | 7 kts | 168° |
| 2026-04-28 19:55 | 32.13380 | -81.20012 | 45 ft | 55 kts | 179° |
| 2026-04-28 19:55 | 32.12822 | -81.20008 | 116 ft | 96 kts | 181° |
| 2026-04-28 19:55 | 32.12089 | -81.20014 | 336 ft | 121 kts | 181° |
| 2026-04-28 19:55 | 32.11195 | -81.20037 | 801 ft | 135 kts | 182° |
| 2026-04-28 19:56 | 32.10174 | -81.20071 | 1158 ft | 158 kts | 181° |
| 2026-04-28 19:56 | 32.09049 | -81.20166 | 1816 ft | 163 kts | 183° |
| 2026-04-28 19:56 | 32.07911 | -81.20251 | 2497 ft | 166 kts | 183° |
| 2026-04-28 19:56 | 32.06748 | -81.20328 | 2984 ft | 170 kts | 183° |
| 2026-04-28 19:57 | 32.05483 | -81.20386 | 2970 ft | 194 kts | 182° |
| 2026-04-28 19:57 | 32.04057 | -81.20450 | 2971 ft | 217 kts | 182° |
| 2026-04-28 19:57 | 32.02474 | -81.20521 | 2970 ft | 238 kts | 182° |
| 2026-04-28 19:57 | 32.00765 | -81.20602 | 2969 ft | 253 kts | 182° |
| 2026-04-28 19:58 | 31.98972 | -81.20688 | 2969 ft | 260 kts | 182° |
| 2026-04-28 19:58 | 31.97155 | -81.20774 | 2972 ft | 263 kts | 182° |
| 2026-04-28 19:58 | 31.95319 | -81.20858 | 3015 ft | 263 kts | 182° |
| 2026-04-28 19:58 | 31.93575 | -81.21016 | 3750 ft | 239 kts | 194° |
| 2026-04-28 19:59 | 31.92246 | -81.21934 | 4630 ft | 211 kts | 230° |
| 2026-04-28 19:59 | 31.91713 | -81.23379 | 5489 ft | 180 kts | 268° |
| 2026-04-28 19:59 | 31.91959 | -81.24734 | 5982 ft | 173 kts | 298° |
| 2026-04-28 19:59 | 31.92728 | -81.25799 | 6374 ft | 172 kts | 326° |
| 2026-04-28 20:00 | 31.93806 | -81.26383 | 6767 ft | 172 kts | 339° |
| 2026-04-28 20:00 | 31.94920 | -81.26912 | 7162 ft | 173 kts | 336° |
| 2026-04-28 20:00 | 31.96032 | -81.27463 | 7560 ft | 174 kts | 336° |
| 2026-04-28 20:00 | 31.97130 | -81.28057 | 7908 ft | 174 kts | 324° |
| 2026-04-28 20:01 | 31.97844 | -81.29188 | 8266 ft | 174 kts | 297° |
| 2026-04-28 20:01 | 31.98383 | -81.30469 | 8629 ft | 174 kts | 299° |
| 2026-04-28 20:01 | 31.98991 | -81.31697 | 9007 ft | 173 kts | 302° |
| 2026-04-28 20:01 | 31.99624 | -81.32909 | 9373 ft | 174 kts | 302° |
| 2026-04-28 20:02 | 32.00258 | -81.34125 | 9733 ft | 174 kts | 302° |
| 2026-04-28 20:02 | 32.00892 | -81.35342 | 10091 ft | 174 kts | 302° |
| 2026-04-28 20:02 | 32.01527 | -81.36563 | 10406 ft | 175 kts | 302° |
| 2026-04-28 20:02 | 32.02164 | -81.37787 | 10731 ft | 175 kts | 301° |
| 2026-04-28 20:03 | 32.02801 | -81.39013 | 11070 ft | 176 kts | 301° |
| 2026-04-28 20:03 | 32.03442 | -81.40246 | 11404 ft | 176 kts | 301° |
| 2026-04-28 20:03 | 32.04083 | -81.41477 | 11768 ft | 177 kts | 301° |
| 2026-04-28 20:03 | 32.04725 | -81.42715 | 12104 ft | 177 kts | 301° |
| 2026-04-28 20:04 | 32.05370 | -81.43954 | 12443 ft | 177 kts | 301° |
| 2026-04-28 20:04 | 32.06015 | -81.45196 | 12784 ft | 178 kts | 301° |
| 2026-04-28 20:04 | 32.06661 | -81.46439 | 13130 ft | 178 kts | 301° |
| 2026-04-28 20:04 | 32.07308 | -81.47686 | 13468 ft | 178 kts | 301° |
| 2026-04-28 20:05 | 32.07956 | -81.48936 | 13822 ft | 179 kts | 300° |
| 2026-04-28 20:05 | 32.08597 | -81.50173 | 14153 ft | 179 kts | 300° |
| 2026-04-28 20:05 | 32.09257 | -81.51449 | 14452 ft | 180 kts | 300° |
| 2026-04-28 20:05 | 32.09912 | -81.52717 | 14756 ft | 181 kts | 300° |
| 2026-04-28 20:06 | 32.10571 | -81.53990 | 15067 ft | 182 kts | 300° |
| 2026-04-28 20:06 | 32.11225 | -81.55254 | 15368 ft | 183 kts | 300° |
| 2026-04-28 20:06 | 32.11891 | -81.56540 | 15678 ft | 184 kts | 300° |
| 2026-04-28 20:06 | 32.12559 | -81.57836 | 15983 ft | 185 kts | 300° |
| 2026-04-28 20:07 | 32.13232 | -81.59135 | 16283 ft | 186 kts | 300° |
| 2026-04-28 20:07 | 32.13688 | -81.60020 | 16468 ft | 187 kts | 300° |
| 2026-04-28 20:07 | 32.14588 | -81.61763 | 16871 ft | 189 kts | 300° |
| 2026-04-28 20:07 | 32.15271 | -81.63089 | 17182 ft | 189 kts | 300° |
| 2026-04-28 20:08 | 32.15959 | -81.64421 | 17485 ft | 191 kts | 300° |
| 2026-04-28 20:08 | 32.16652 | -81.65763 | 17788 ft | 192 kts | 300° |
| 2026-04-28 20:08 | 32.17348 | -81.67110 | 18093 ft | 193 kts | 300° |
| 2026-04-28 20:08 | 32.18047 | -81.68465 | 18406 ft | 194 kts | 301° |
| 2026-04-28 20:09 | 32.18753 | -81.69829 | 18677 ft | 195 kts | 300° |
| 2026-04-28 20:09 | 32.19457 | -81.71198 | 18940 ft | 196 kts | 301° |
| 2026-04-28 20:09 | 32.20166 | -81.72572 | 19207 ft | 196 kts | 301° |
| 2026-04-28 20:09 | 32.20876 | -81.73951 | 19474 ft | 197 kts | 300° |
| 2026-04-28 20:10 | 32.21592 | -81.75338 | 19743 ft | 198 kts | 300° |
| 2026-04-28 20:10 | 32.22309 | -81.76730 | 20022 ft | 199 kts | 300° |
| 2026-04-28 20:10 | 32.23028 | -81.78128 | 20293 ft | 199 kts | 300° |
| 2026-04-28 20:10 | 32.23749 | -81.79528 | 20564 ft | 200 kts | 300° |
| 2026-04-28 20:11 | 32.24473 | -81.80938 | 20831 ft | 201 kts | 300° |
| 2026-04-28 20:11 | 32.25200 | -81.82354 | 21108 ft | 202 kts | 300° |
| 2026-04-28 20:11 | 32.25928 | -81.83773 | 21414 ft | 201 kts | 300° |
| 2026-04-28 20:11 | 32.26653 | -81.85185 | 21722 ft | 201 kts | 300° |
| 2026-04-28 20:12 | 32.27376 | -81.86594 | 22025 ft | 201 kts | 300° |
| 2026-04-28 20:12 | 32.28089 | -81.87986 | 22326 ft | 200 kts | 300° |
| 2026-04-28 20:12 | 32.28811 | -81.89392 | 22639 ft | 200 kts | 300° |
| 2026-04-28 20:12 | 32.29297 | -81.90342 | 22846 ft | 200 kts | 300° |
| 2026-04-28 20:13 | 32.30248 | -81.92201 | 23166 ft | 204 kts | 300° |
| 2026-04-28 20:13 | 32.31004 | -81.93678 | 23171 ft | 216 kts | 300° |
| 2026-04-28 20:13 | 32.31802 | -81.95236 | 23181 ft | 226 kts | 300° |
| 2026-04-28 20:13 | 32.32634 | -81.96863 | 23178 ft | 235 kts | 300° |
| 2026-04-28 20:14 | 32.33494 | -81.98544 | 23176 ft | 242 kts | 300° |
| 2026-04-28 20:14 | 32.34376 | -82.00269 | 23174 ft | 248 kts | 300° |
| 2026-04-28 20:14 | 32.35278 | -82.02030 | 23176 ft | 253 kts | 300° |
| 2026-04-28 20:14 | 32.36199 | -82.03832 | 23172 ft | 257 kts | 300° |
| 2026-04-28 20:15 | 32.37129 | -82.05655 | 23174 ft | 261 kts | 300° |
| 2026-04-28 20:15 | 32.38074 | -82.07503 | 23178 ft | 263 kts | 300° |
| 2026-04-28 20:15 | 32.39025 | -82.09367 | 23174 ft | 266 kts | 300° |
| 2026-04-28 20:15 | 32.39954 | -82.11259 | 23175 ft | 266 kts | 296° |
| 2026-04-28 20:16 | 32.40592 | -82.13320 | 23174 ft | 268 kts | 285° |
| 2026-04-28 20:16 | 32.40977 | -82.15483 | 23174 ft | 269 kts | 282° |
| 2026-04-28 20:16 | 32.41360 | -82.17627 | 23173 ft | 270 kts | 283° |
| 2026-04-28 20:16 | 32.41757 | -82.19806 | 23176 ft | 271 kts | 283° |
| 2026-04-28 20:17 | 32.42146 | -82.21997 | 23175 ft | 273 kts | 283° |
| 2026-04-28 20:17 | 32.42539 | -82.24225 | 23179 ft | 274 kts | 283° |
| 2026-04-28 20:17 | 32.42930 | -82.26430 | 23176 ft | 275 kts | 283° |
| 2026-04-28 20:17 | 32.43319 | -82.28620 | 23178 ft | 275 kts | 283° |
| 2026-04-28 20:18 | 32.43711 | -82.30837 | 23181 ft | 276 kts | 283° |
| 2026-04-28 20:18 | 32.43976 | -82.32339 | 23182 ft | 276 kts | 283° |
| 2026-04-28 20:18 | 32.44497 | -82.35291 | 23182 ft | 277 kts | 283° |
| 2026-04-28 20:18 | 32.44897 | -82.37555 | 23183 ft | 277 kts | 283° |
| 2026-04-28 20:19 | 32.45285 | -82.39763 | 23183 ft | 278 kts | 283° |
| 2026-04-28 20:19 | 32.45679 | -82.41999 | 23182 ft | 278 kts | 283° |
| 2026-04-28 20:19 | 32.46073 | -82.44246 | 23183 ft | 279 kts | 283° |
| 2026-04-28 20:19 | 32.46467 | -82.46492 | 23187 ft | 279 kts | 283° |
| 2026-04-28 20:20 | 32.46861 | -82.48741 | 23191 ft | 279 kts | 283° |
| 2026-04-28 20:20 | 32.47255 | -82.50993 | 23190 ft | 279 kts | 283° |
| 2026-04-28 20:20 | 32.47649 | -82.53244 | 23193 ft | 280 kts | 283° |
| 2026-04-28 20:20 | 32.48043 | -82.55500 | 23193 ft | 280 kts | 283° |
| 2026-04-28 20:21 | 32.48438 | -82.57755 | 23195 ft | 280 kts | 283° |
| 2026-04-28 20:21 | 32.48831 | -82.60012 | 23191 ft | 280 kts | 283° |
| 2026-04-28 20:21 | 32.49224 | -82.62267 | 23188 ft | 280 kts | 283° |
| 2026-04-28 20:21 | 32.49618 | -82.64533 | 23183 ft | 282 kts | 283° |
| 2026-04-28 20:22 | 32.50017 | -82.66819 | 23184 ft | 284 kts | 283° |
| 2026-04-28 20:22 | 32.50416 | -82.69121 | 23179 ft | 287 kts | 283° |
| 2026-04-28 20:22 | 32.50820 | -82.71443 | 23180 ft | 289 kts | 283° |
| 2026-04-28 20:22 | 32.51226 | -82.73789 | 23177 ft | 291 kts | 283° |
| 2026-04-28 20:23 | 32.51637 | -82.76145 | 23165 ft | 293 kts | 284° |
| 2026-04-28 20:23 | 32.52295 | -82.78427 | 23158 ft | 293 kts | 294° |
| 2026-04-28 20:23 | 32.53296 | -82.80533 | 23155 ft | 295 kts | 304° |
| 2026-04-28 20:23 | 32.54616 | -82.82406 | 23150 ft | 297 kts | 313° |
| 2026-04-28 20:24 | 32.56183 | -82.84015 | 23154 ft | 299 kts | 319° |
| 2026-04-28 20:24 | 32.57775 | -82.85607 | 23151 ft | 300 kts | 317° |
| 2026-04-28 20:24 | 32.59361 | -82.87218 | 23148 ft | 301 kts | 317° |
| 2026-04-28 20:24 | 32.60923 | -82.88789 | 23145 ft | 295 kts | 318° |
| 2026-04-28 20:25 | 32.62481 | -82.90352 | 23141 ft | 292 kts | 318° |
| 2026-04-28 20:25 | 32.64024 | -82.91903 | 23140 ft | 290 kts | 318° |
| 2026-04-28 20:25 | 32.65555 | -82.93447 | 23139 ft | 288 kts | 318° |
| 2026-04-28 20:25 | 32.67080 | -82.94982 | 23140 ft | 287 kts | 318° |
| 2026-04-28 20:26 | 32.68598 | -82.96513 | 23141 ft | 286 kts | 318° |
| 2026-04-28 20:26 | 32.70108 | -82.98035 | 23144 ft | 284 kts | 317° |
| 2026-04-28 20:26 | 32.71614 | -82.99554 | 23147 ft | 284 kts | 317° |
| 2026-04-28 20:26 | 32.73124 | -83.01079 | 23153 ft | 286 kts | 317° |
| 2026-04-28 20:27 | 32.74646 | -83.02615 | 23159 ft | 288 kts | 317° |
| 2026-04-28 20:27 | 32.76180 | -83.04163 | 23162 ft | 290 kts | 317° |
| 2026-04-28 20:27 | 32.77725 | -83.05725 | 23166 ft | 292 kts | 317° |
| 2026-04-28 20:27 | 32.79277 | -83.07294 | 23173 ft | 294 kts | 317° |
| 2026-04-28 20:28 | 32.80842 | -83.08876 | 23174 ft | 296 kts | 317° |
| 2026-04-28 20:28 | 32.82416 | -83.10470 | 23177 ft | 298 kts | 317° |
| 2026-04-28 20:28 | 32.83999 | -83.12071 | 23177 ft | 300 kts | 318° |
| 2026-04-28 20:28 | 32.85588 | -83.13681 | 23194 ft | 299 kts | 317° |
| 2026-04-28 20:29 | 32.87159 | -83.15271 | 23187 ft | 294 kts | 317° |
| 2026-04-28 20:29 | 32.88705 | -83.16836 | 23187 ft | 291 kts | 317° |
| 2026-04-28 20:29 | 32.90238 | -83.18392 | 23081 ft | 288 kts | 317° |
| 2026-04-28 20:29 | 32.91753 | -83.19928 | 22742 ft | 284 kts | 317° |
| 2026-04-28 20:30 | 32.93246 | -83.21442 | 22372 ft | 280 kts | 317° |
| 2026-04-28 20:30 | 32.94724 | -83.22946 | 22000 ft | 280 kts | 317° |
| 2026-04-28 20:30 | 32.96206 | -83.24453 | 21633 ft | 280 kts | 317° |
| 2026-04-28 20:30 | 32.97675 | -83.25945 | 21270 ft | 282 kts | 317° |
| 2026-04-28 20:31 | 32.98682 | -83.26969 | 21021 ft | 283 kts | 316° |
| 2026-04-28 20:31 | 33.00671 | -83.28991 | 20525 ft | 284 kts | 316° |
| 2026-04-28 20:31 | 33.02176 | -83.30525 | 20149 ft | 286 kts | 316° |
| 2026-04-28 20:31 | 33.03693 | -83.32069 | 19770 ft | 287 kts | 316° |
| 2026-04-28 20:32 | 33.05211 | -83.33616 | 19395 ft | 287 kts | 316° |
| 2026-04-28 20:32 | 33.06730 | -83.35163 | 19015 ft | 288 kts | 316° |
| 2026-04-28 20:32 | 33.08261 | -83.36727 | 18530 ft | 291 kts | 316° |
| 2026-04-28 20:32 | 33.09281 | -83.37767 | 18175 ft | 291 kts | 316° |
| 2026-04-28 20:33 | 33.10833 | -83.39348 | 17757 ft | 289 kts | 316° |
| 2026-04-28 20:33 | 33.12344 | -83.40891 | 17378 ft | 290 kts | 316° |
| 2026-04-28 20:33 | 33.13877 | -83.42462 | 16996 ft | 291 kts | 316° |
| 2026-04-28 20:33 | 33.15419 | -83.44037 | 16609 ft | 292 kts | 316° |
| 2026-04-28 20:34 | 33.16966 | -83.45618 | 16224 ft | 293 kts | 316° |
| 2026-04-28 20:34 | 33.19041 | -83.47743 | 15705 ft | 294 kts | 316° |
| 2026-04-28 20:34 | 33.20071 | -83.48797 | 15446 ft | 295 kts | 316° |
| 2026-04-28 20:34 | 33.21629 | -83.50392 | 15057 ft | 296 kts | 316° |
| 2026-04-28 20:35 | 33.23188 | -83.51989 | 14668 ft | 294 kts | 316° |
| 2026-04-28 20:35 | 33.24735 | -83.53574 | 14274 ft | 293 kts | 316° |
| 2026-04-28 20:35 | 33.26275 | -83.55156 | 13879 ft | 291 kts | 316° |
| 2026-04-28 20:35 | 33.27806 | -83.56727 | 13487 ft | 290 kts | 316° |
| 2026-04-28 20:36 | 33.29332 | -83.58293 | 13106 ft | 288 kts | 316° |
| 2026-04-28 20:36 | 33.30851 | -83.59851 | 12728 ft | 287 kts | 316° |
| 2026-04-28 20:36 | 33.32362 | -83.61405 | 12352 ft | 286 kts | 316° |
| 2026-04-28 20:36 | 33.33866 | -83.62951 | 11976 ft | 285 kts | 316° |
| 2026-04-28 20:37 | 33.35364 | -83.64491 | 11599 ft | 283 kts | 316° |
| 2026-04-28 20:37 | 33.36856 | -83.66017 | 11224 ft | 282 kts | 317° |
| 2026-04-28 20:37 | 33.38522 | -83.67262 | 11002 ft | 283 kts | 330° |
| 2026-04-28 20:37 | 33.40357 | -83.68110 | 10997 ft | 282 kts | 337° |
| 2026-04-28 20:38 | 33.42208 | -83.68864 | 10999 ft | 281 kts | 336° |
| 2026-04-28 20:38 | 33.44052 | -83.69639 | 11004 ft | 280 kts | 336° |
| 2026-04-28 20:38 | 33.45885 | -83.70403 | 11003 ft | 279 kts | 336° |
| 2026-04-28 20:38 | 33.47719 | -83.71159 | 11005 ft | 279 kts | 336° |
| 2026-04-28 20:39 | 33.49559 | -83.71920 | 11000 ft | 279 kts | 336° |
| 2026-04-28 20:39 | 33.51410 | -83.72692 | 10697 ft | 285 kts | 336° |
| 2026-04-28 20:39 | 33.53299 | -83.73478 | 10351 ft | 288 kts | 336° |
| 2026-04-28 20:39 | 33.55192 | -83.74260 | 9999 ft | 287 kts | 336° |
| 2026-04-28 20:40 | 33.57074 | -83.75042 | 9615 ft | 286 kts | 336° |
| 2026-04-28 20:40 | 33.58946 | -83.75821 | 9235 ft | 284 kts | 337° |
| 2026-04-28 20:40 | 33.60807 | -83.76595 | 8861 ft | 281 kts | 337° |
| 2026-04-28 20:40 | 33.62651 | -83.77362 | 8486 ft | 280 kts | 337° |
| 2026-04-28 20:41 | 33.64457 | -83.78114 | 8123 ft | 278 kts | 337° |
| 2026-04-28 20:41 | 33.66284 | -83.78876 | 7760 ft | 276 kts | 337° |
| 2026-04-28 20:41 | 33.68091 | -83.79628 | 7408 ft | 275 kts | 337° |
| 2026-04-28 20:41 | 33.69894 | -83.80380 | 7058 ft | 273 kts | 337° |
| 2026-04-28 20:42 | 33.71688 | -83.81130 | 6703 ft | 272 kts | 338° |
| 2026-04-28 20:42 | 33.73472 | -83.81874 | 6337 ft | 271 kts | 338° |
| 2026-04-28 20:42 | 33.75250 | -83.82615 | 6011 ft | 269 kts | 337° |
| 2026-04-28 20:42 | 33.77006 | -83.83348 | 5951 ft | 268 kts | 337° |
| 2026-04-28 20:43 | 33.78784 | -83.84091 | 5577 ft | 270 kts | 337° |
| 2026-04-28 20:43 | 33.80550 | -83.84829 | 5219 ft | 267 kts | 337° |
| 2026-04-28 20:43 | 33.82194 | -83.85797 | 4864 ft | 261 kts | 323° |
| 2026-04-28 20:43 | 33.83573 | -83.87175 | 4479 ft | 256 kts | 311° |
| 2026-04-28 20:44 | 33.84812 | -83.88711 | 4103 ft | 256 kts | 311° |
| 2026-04-28 20:44 | 33.86063 | -83.90214 | 3999 ft | 253 kts | 311° |
| 2026-04-28 20:44 | 33.87304 | -83.91703 | 3997 ft | 253 kts | 311° |
| 2026-04-28 20:44 | 33.88555 | -83.93226 | 3996 ft | 256 kts | 311° |
| 2026-04-28 20:45 | 33.89810 | -83.94753 | 3998 ft | 257 kts | 311° |
| 2026-04-28 20:45 | 33.91066 | -83.96271 | 4000 ft | 256 kts | 311° |
| 2026-04-28 20:45 | 33.92263 | -83.97715 | 4000 ft | 228 kts | 311° |
| 2026-04-28 20:45 | 33.93322 | -83.98996 | 3984 ft | 205 kts | 310° |
| 2026-04-28 20:46 | 33.94375 | -84.00083 | 3985 ft | 207 kts | 326° |
| 2026-04-28 20:46 | 33.95746 | -84.00783 | 3998 ft | 215 kts | 334° |
| 2026-04-28 20:46 | 33.97096 | -84.01389 | 3999 ft | 200 kts | 334° |
| 2026-04-28 20:46 | 33.98377 | -84.01958 | 3990 ft | 193 kts | 334° |
| 2026-04-28 20:47 | 33.99614 | -84.02497 | 3987 ft | 190 kts | 334° |
| 2026-04-28 20:47 | 34.00872 | -84.03050 | 3989 ft | 191 kts | 334° |
| 2026-04-28 20:47 | 34.02103 | -84.03594 | 3992 ft | 191 kts | 334° |
| 2026-04-28 20:47 | 34.03357 | -84.04138 | 3993 ft | 190 kts | 334° |
| 2026-04-28 20:48 | 34.04595 | -84.04677 | 3996 ft | 190 kts | 335° |
| 2026-04-28 20:48 | 34.05838 | -84.05232 | 3994 ft | 193 kts | 334° |
| 2026-04-28 20:48 | 34.07099 | -84.05791 | 3992 ft | 193 kts | 334° |
| 2026-04-28 20:48 | 34.08353 | -84.06342 | 3997 ft | 190 kts | 334° |
| 2026-04-28 20:49 | 34.09592 | -84.06883 | 3996 ft | 191 kts | 335° |
| 2026-04-28 20:49 | 34.10848 | -84.07436 | 3994 ft | 191 kts | 334° |
| 2026-04-28 20:49 | 34.12006 | -84.08162 | 3987 ft | 183 kts | 311° |
| 2026-04-28 20:49 | 34.12587 | -84.09460 | 3992 ft | 176 kts | 284° |
| 2026-04-28 20:50 | 34.12949 | -84.10870 | 3997 ft | 177 kts | 284° |
| 2026-04-28 20:50 | 34.13204 | -84.12304 | 3987 ft | 175 kts | 265° |
| 2026-04-28 20:50 | 34.12740 | -84.13632 | 3987 ft | 174 kts | 235° |
| 2026-04-28 20:50 | 34.11998 | -84.14789 | 3993 ft | 175 kts | 234° |
| 2026-04-28 20:51 | 34.11275 | -84.15920 | 3999 ft | 159 kts | 234° |
| 2026-04-28 20:51 | 34.10659 | -84.16898 | 3988 ft | 141 kts | 235° |
| 2026-04-28 20:51 | 34.10059 | -84.17839 | 3981 ft | 141 kts | 234° |
| 2026-04-28 20:51 | 34.09656 | -84.18459 | 3991 ft | 144 kts | 233° |
| 2026-04-28 20:52 | 34.08661 | -84.19579 | 3991 ft | 148 kts | 223° |
| 2026-04-28 20:52 | 34.07874 | -84.20392 | 3978 ft | 150 kts | 223° |
| 2026-04-28 20:52 | 34.07056 | -84.21165 | 3974 ft | 150 kts | 212° |
| 2026-04-28 20:52 | 34.06106 | -84.21668 | 3970 ft | 147 kts | 208° |
| 2026-04-28 20:53 | 34.04457 | -84.22462 | 3960 ft | 121 kts | 207° |
| 2026-04-28 20:53 | 34.03687 | -84.22825 | 3965 ft | 119 kts | 207° |
| 2026-04-28 20:53 | 34.02905 | -84.23176 | 3966 ft | 118 kts | 207° |
| 2026-04-28 20:54 | 34.02136 | -84.23520 | 3911 ft | 123 kts | 205° |
| 2026-04-28 20:54 | 34.01332 | -84.23883 | 3758 ft | 123 kts | 205° |
| 2026-04-28 20:54 | 34.00550 | -84.24232 | 3596 ft | 118 kts | 206° |
| 2026-04-28 20:54 | 33.99796 | -84.24577 | 3447 ft | 115 kts | 204° |
| 2026-04-28 20:55 | 33.99047 | -84.24914 | 3297 ft | 115 kts | 205° |
| 2026-04-28 20:55 | 33.98303 | -84.25248 | 3148 ft | 115 kts | 203° |
| 2026-04-28 20:55 | 33.97551 | -84.25587 | 2989 ft | 115 kts | 204° |
| 2026-04-28 20:55 | 33.96806 | -84.25926 | 2837 ft | 113 kts | 202° |
| 2026-04-28 20:56 | 33.96080 | -84.26253 | 2694 ft | 111 kts | 201° |
| 2026-04-28 20:56 | 33.95357 | -84.26580 | 2536 ft | 110 kts | 201° |
| 2026-04-28 20:56 | 33.94647 | -84.26895 | 2399 ft | 111 kts | 201° |
| 2026-04-28 20:56 | 33.93904 | -84.27229 | 2250 ft | 116 kts | 201° |
| 2026-04-28 20:57 | 33.93137 | -84.27576 | 2090 ft | 118 kts | 201° |
| 2026-04-28 20:57 | 33.92383 | -84.27917 | 1939 ft | 115 kts | 199° |
| 2026-04-28 20:57 | 33.91636 | -84.28255 | 1768 ft | 114 kts | 200° |
| 2026-04-28 20:57 | 33.90890 | -84.28593 | 1606 ft | 115 kts | 199° |
| 2026-04-28 20:58 | 33.90131 | -84.28934 | 1451 ft | 117 kts | 200° |
| 2026-04-28 20:58 | 33.89393 | -84.29258 | 1375 ft | 112 kts | 197° |
| 2026-04-28 20:58 | 33.88679 | -84.29578 | 1174 ft | 108 kts | 198° |
| 2026-04-28 20:58 | 33.87999 | -84.29889 | 1012 ft | 98 kts | 199° |
| 2026-04-28 20:59 | 33.87478 | -84.30128 | 994 ft | 65 kts | 200° |
| 2026-04-28 20:59 | 33.87169 | -84.30259 | 999 ft | 27 kts | 199° |
| 2026-04-28 20:59 | 33.87125 | -84.30311 | 1000 ft | 7 kts | 289° |
| 2026-04-28 20:59 | 33.87145 | -84.30376 | 997 ft | 9 kts | 291° |
| 2026-04-28 21:00 | 33.87146 | -84.30379 | 997 ft | 0 kts | 291° |
| 2026-04-28 21:00 | 33.87173 | -84.30467 | 995 ft | 17 kts | 290° |
| 2026-04-28 21:00 | 33.87233 | -84.30496 | 996 ft | 8 kts | 18° |
| 2026-04-28 21:01 | 33.87294 | -84.30470 | 996 ft | 17 kts | 20° |